Time;durP1;ratioP1;P1;durP2;ratioP2;P2;SDS_P1;SDS_P2;PMS_P1;PMS_P2;Temp;Humidity;BMP_temperature;BMP_pressure;BME280_temperature;BME280_humidity;BME280_pressure;Samples;Min_cycle;Max_cycle;Signal;HPM_P1;HPM_P2
2020/12/13 00:02:10;;;;;;;10.20;7.43;;;;;;;4.24;94.64;95837.88;4990796;28;20038;-67
2020/12/13 00:04:37;;;;;;;13.68;7.22;;;;;;;4.17;94.94;95841.19;4984156;28;20054;-66
2020/12/13 00:07:04;;;;;;;11.05;6.55;;;;;;;4.27;94.40;95843.41;4978678;28;20097;-70
2020/12/13 00:09:29;;;;;;;9.55;6.57;;;;;;;4.19;94.61;95836.97;4977523;28;20057;-65
2020/12/13 00:11:55;;;;;;;10.52;7.00;;;;;;;4.14;94.58;95845.38;4981513;28;20062;-65
2020/12/13 00:14:20;;;;;;;15.70;7.50;;;;;;;4.10;94.49;95841.00;4990784;28;20069;-66
2020/12/13 00:16:50;;;;;;;10.65;6.03;;;;;;;4.11;94.75;95843.34;4999165;28;20054;-67
2020/12/13 00:19:15;;;;;;;9.07;5.93;;;;;;;4.09;95.14;95848.34;4966822;28;20766;-65
2020/12/13 00:21:41;;;;;;;9.70;6.50;;;;;;;4.08;95.07;95852.16;4981558;28;20046;-67
2020/12/13 00:24:06;;;;;;;10.18;6.35;;;;;;;4.12;94.98;95844.13;4974632;28;20052;-65
2020/12/13 00:26:31;;;;;;;10.10;6.28;;;;;;;4.31;94.53;95847.00;4978628;28;20038;-65
2020/12/13 00:28:57;;;;;;;7.70;5.20;;;;;;;4.26;94.42;95854.59;4982404;28;20066;-66
2020/12/13 00:31:22;;;;;;;9.57;5.65;;;;;;;4.30;94.69;95850.03;4976994;28;20155;-67
2020/12/13 00:33:48;;;;;;;9.70;5.68;;;;;;;4.30;94.59;95858.94;4987275;28;20039;-67
2020/12/13 00:36:17;;;;;;;10.07;6.25;;;;;;;4.21;94.70;95858.31;4981046;28;20073;-63
2020/12/13 00:38:42;;;;;;;11.23;5.90;;;;;;;4.28;94.72;95857.75;4980600;28;20050;-65
2020/12/13 00:41:09;;;;;;;9.98;6.57;;;;;;;4.26;94.52;95860.78;4975845;28;20035;-66
2020/12/13 00:43:35;;;;;;;10.57;5.78;;;;;;;4.32;94.60;95862.13;4982055;28;20049;-65
2020/12/13 00:46:00;;;;;;;9.18;5.45;;;;;;;4.21;94.84;95869.16;4981313;28;20039;-64
2020/12/13 00:48:25;;;;;;;8.20;5.20;;;;;;;4.46;94.49;95869.06;4977181;28;20464;-64
2020/12/13 00:50:51;;;;;;;9.55;6.53;;;;;;;4.30;94.21;95869.78;4981816;28;20100;-66
2020/12/13 00:53:16;;;;;;;8.63;5.18;;;;;;;4.27;94.52;95867.00;4976783;28;20042;-64
2020/12/13 00:55:41;;;;;;;11.35;6.30;;;;;;;4.20;94.52;95875.75;4979380;28;20042;-65
2020/12/13 00:58:07;;;;;;;11.32;6.55;;;;;;;4.16;95.08;95880.25;4976741;28;20054;-66
2020/12/13 01:00:33;;;;;;;7.50;5.13;;;;;;;4.35;94.64;95876.91;4980336;28;20078;-65
2020/12/13 01:03:01;;;;;;;8.32;5.32;;;;;;;4.35;94.65;95882.31;4983324;28;20427;-66
2020/12/13 01:05:27;;;;;;;9.38;5.47;;;;;;;4.32;94.58;95891.16;4981320;28;20042;-65
2020/12/13 01:07:53;;;;;;;9.88;6.00;;;;;;;4.34;95.02;95886.97;4981007;28;20372;-65
2020/12/13 01:10:19;;;;;;;11.15;6.53;;;;;;;4.50;94.63;95889.72;4974573;28;20049;-66
2020/12/13 01:12:45;;;;;;;9.80;6.03;;;;;;;4.48;94.49;95896.59;4981236;28;20134;-64
2020/12/13 01:15:11;;;;;;;10.35;5.80;;;;;;;4.43;94.30;95896.84;4974533;28;20046;-70
2020/12/13 01:17:36;;;;;;;7.22;5.25;;;;;;;4.35;94.50;95902.09;4980691;28;20513;-66
2020/12/13 01:20:03;;;;;;;10.68;5.63;;;;;;;4.34;94.99;95899.72;4980104;28;20042;-67
2020/12/13 01:22:29;;;;;;;7.85;5.47;;;;;;;4.45;94.97;95900.81;4980692;28;20038;-65
2020/12/13 01:24:54;;;;;;;7.97;5.13;;;;;;;4.55;94.60;95911.13;4980033;28;20301;-66
2020/12/13 01:27:20;;;;;;;11.07;6.55;;;;;;;4.70;93.81;95922.38;4974149;28;20053;-69
2020/12/13 01:29:46;;;;;;;9.73;6.00;;;;;;;4.69;93.31;95918.09;4981204;28;20468;-66
2020/12/13 01:32:11;;;;;;;8.90;6.15;;;;;;;4.58;93.74;95913.16;4977097;28;20042;-65
2020/12/13 01:34:37;;;;;;;10.65;6.65;;;;;;;4.41;94.10;95927.03;4981081;28;20043;-65
2020/12/13 01:37:02;;;;;;;9.65;6.28;;;;;;;4.34;94.67;95929.53;4982238;28;20042;-71
2020/12/13 01:39:29;;;;;;;8.95;6.75;;;;;;;4.44;94.76;95930.97;4980857;28;20165;-66
2020/12/13 01:42:01;;;;;;;10.38;6.35;;;;;;;4.46;94.90;95943.06;4984647;28;20035;-67
2020/12/13 01:44:31;;;;;;;9.68;6.45;;;;;;;4.58;94.04;95939.50;4980470;28;20066;-65
2020/12/13 01:46:58;;;;;;;8.68;6.47;;;;;;;4.71;93.66;95940.25;4984653;28;20046;-65
2020/12/13 01:49:27;;;;;;;8.88;6.25;;;;;;;4.68;93.73;95939.03;4979286;28;20608;-65
2020/12/13 01:54:20;;;;;;;10.90;7.00;;;;;;;4.69;93.45;95939.81;4979661;28;20046;-65
2020/12/13 01:56:48;;;;;;;10.93;6.95;;;;;;;4.67;94.00;95948.28;4984396;28;20534;-66
2020/12/13 01:59:18;;;;;;;10.85;6.95;;;;;;;4.64;94.23;95946.25;4978291;28;20046;-65
2020/12/13 02:01:57;;;;;;;10.43;6.88;;;;;;;4.50;93.96;95945.84;4982839;28;20119;-65
2020/12/13 02:04:23;;;;;;;11.38;7.53;;;;;;;4.53;94.45;95950.59;4979472;28;20050;-65
2020/12/13 02:06:54;;;;;;;14.82;8.02;;;;;;;4.47;94.41;95955.50;4984404;28;20053;-66
2020/12/13 02:09:23;;;;;;;13.60;7.63;;;;;;;4.48;94.74;95946.19;4980101;28;20595;-66
2020/12/13 02:11:50;;;;;;;11.77;7.80;;;;;;;4.51;94.57;95953.66;4992724;28;20056;-64
2020/12/13 02:14:16;;;;;;;12.70;8.30;;;;;;;4.68;94.02;95951.78;4982712;28;20046;-68
2020/12/13 02:16:45;;;;;;;10.73;7.10;;;;;;;4.65;94.37;95953.25;4984751;28;20039;-67
2020/12/13 02:19:12;;;;;;;11.80;7.65;;;;;;;4.66;93.96;95971.09;4980021;28;20042;-64
2020/12/13 02:21:59;;;;;;;11.23;7.38;;;;;;;4.69;93.47;95964.22;4986583;28;20135;-66
2020/12/13 02:24:25;;;;;;;10.57;6.82;;;;;;;4.70;93.66;95973.91;4995056;28;20058;-65
2020/12/13 02:26:50;;;;;;;10.93;7.32;;;;;;;4.69;93.81;95965.00;4999398;28;20043;-65
2020/12/13 02:29:16;;;;;;;10.50;6.82;;;;;;;4.58;93.84;95962.00;4982285;28;20499;-66
2020/12/13 02:31:42;;;;;;;11.00;7.32;;;;;;;4.46;94.16;95961.25;4983755;28;20046;-64
2020/12/13 02:34:08;;;;;;;13.18;6.80;;;;;;;4.45;94.14;95960.47;4978536;28;20121;-66
2020/12/13 02:36:34;;;;;;;12.52;8.15;;;;;;;4.50;93.88;95971.06;4983481;28;20054;-68
2020/12/13 02:39:00;;;;;;;13.32;6.75;;;;;;;4.74;92.90;95963.97;4983922;28;20038;-65
2020/12/13 02:41:26;;;;;;;11.55;6.57;;;;;;;4.60;93.01;95975.22;4978978;28;20058;-64
2020/12/13 02:43:51;;;;;;;11.75;7.35;;;;;;;4.54;92.86;95971.19;4983006;28;20048;-64
2020/12/13 02:46:16;;;;;;;12.02;7.28;;;;;;;4.57;93.45;95978.59;4975112;28;20034;-66
2020/12/13 02:48:42;;;;;;;12.50;7.70;;;;;;;4.46;93.73;95974.81;4982481;28;20039;-66
2020/12/13 02:51:08;;;;;;;10.57;7.18;;;;;;;4.43;93.67;95979.00;4975148;28;20137;-65
2020/12/13 02:53:33;;;;;;;12.27;7.10;;;;;;;4.39;93.84;95976.19;4982982;28;20117;-65
2020/12/13 02:55:58;;;;;;;12.70;6.72;;;;;;;4.36;93.99;95985.00;4982701;28;20070;-65
2020/12/13 02:58:24;;;;;;;9.98;6.60;;;;;;;4.27;94.17;95991.69;4988557;28;20478;-66
2020/12/13 03:00:49;;;;;;;11.23;6.65;;;;;;;4.27;94.24;95991.69;4997700;28;20038;-67
2020/12/13 03:03:14;;;;;;;10.35;6.78;;;;;;;4.28;94.11;95990.56;4996418;28;20076;-66
2020/12/13 03:05:40;;;;;;;10.20;6.40;;;;;;;4.26;94.08;95999.03;4982727;28;20047;-64
2020/12/13 03:08:05;;;;;;;10.82;7.15;;;;;;;4.17;94.52;96006.50;4978611;28;20141;-64
2020/12/13 03:10:30;;;;;;;9.93;7.07;;;;;;;4.15;94.62;96009.56;4983395;28;20065;-64
2020/12/13 03:12:56;;;;;;;9.57;6.43;;;;;;;4.14;94.10;96009.91;4983243;28;20070;-65
2020/12/13 03:15:21;;;;;;;8.15;5.55;;;;;;;4.09;94.40;96007.41;4975729;28;20130;-62
2020/12/13 03:17:47;;;;;;;8.15;5.72;;;;;;;4.09;94.39;96015.53;4982196;28;20042;-65
2020/12/13 03:20:12;;;;;;;8.13;5.20;;;;;;;4.08;94.44;96014.75;4977182;28;20042;-63
2020/12/13 03:22:38;;;;;;;7.53;5.13;;;;;;;4.09;94.06;96015.53;4982717;28;20049;-62
2020/12/13 03:25:04;;;;;;;9.48;5.43;;;;;;;4.10;94.17;96022.56;4980376;28;20039;-68
2020/12/13 03:27:30;;;;;;;8.65;5.22;;;;;;;4.06;94.10;96014.31;4982605;28;20690;-64
2020/12/13 03:29:56;;;;;;;7.80;5.07;;;;;;;4.06;94.32;96014.31;4982747;28;20101;-65
2020/12/13 03:32:22;;;;;;;8.05;4.50;;;;;;;4.10;93.69;96023.34;4976812;28;20928;-65
2020/12/13 03:34:48;;;;;;;6.78;5.03;;;;;;;4.10;93.53;96031.47;4982483;28;20101;-64
2020/12/13 03:37:16;;;;;;;7.13;4.72;;;;;;;4.18;92.98;96027.84;4978397;28;20044;-67
2020/12/13 03:39:42;;;;;;;5.72;3.80;;;;;;;4.18;92.83;96033.28;4980986;28;20038;-66
2020/12/13 03:42:07;;;;;;;6.93;3.88;;;;;;;4.13;92.73;96035.44;4977495;28;20049;-66
2020/12/13 03:44:33;;;;;;;5.53;3.85;;;;;;;4.12;92.59;96034.63;4982709;28;20045;-64
2020/12/13 03:46:58;;;;;;;4.30;3.58;;;;;;;4.05;92.97;96042.53;4983372;28;20046;-64
2020/12/13 03:49:24;;;;;;;4.97;3.50;;;;;;;4.10;92.44;96046.94;4979408;28;20049;-68
2020/12/13 03:51:49;;;;;;;4.93;3.33;;;;;;;4.06;93.19;96041.41;4989812;28;20038;-64
2020/12/13 03:54:15;;;;;;;5.75;3.03;;;;;;;4.07;92.39;96037.59;4981192;28;20058;-64
2020/12/13 03:56:41;;;;;;;4.78;3.20;;;;;;;4.00;92.63;96040.09;4985272;28;20054;-65
2020/12/13 03:59:06;;;;;;;4.57;2.95;;;;;;;3.97;93.02;96052.38;4976166;28;20053;-66
2020/12/13 04:01:32;;;;;;;4.53;3.03;;;;;;;3.91;93.11;96050.25;4981673;28;20081;-64
2020/12/13 04:03:57;;;;;;;5.07;2.97;;;;;;;3.84;92.49;96050.81;4992561;28;20076;-66
2020/12/13 04:06:23;;;;;;;5.68;2.95;;;;;;;3.91;92.36;96052.97;4994147;28;20143;-65
2020/12/13 04:08:48;;;;;;;4.57;2.85;;;;;;;3.89;92.76;96055.19;4983628;28;20047;-67
2020/12/13 04:11:14;;;;;;;2.92;2.15;;;;;;;3.85;92.97;96057.78;4975575;28;20034;-64
2020/12/13 04:13:40;;;;;;;3.17;2.60;;;;;;;3.77;93.43;96062.19;4979764;28;20046;-66
2020/12/13 04:16:05;;;;;;;3.58;2.45;;;;;;;3.78;93.57;96066.50;4975699;28;20089;-64
2020/12/13 04:18:31;;;;;;;3.25;2.40;;;;;;;3.81;93.41;96073.16;4985734;28;20129;-66
2020/12/13 04:20:56;;;;;;;5.72;3.33;;;;;;;3.86;93.24;96077.56;5001687;28;20100;-66
2020/12/13 04:23:22;;;;;;;3.95;2.72;;;;;;;3.86;93.17;96080.28;4982963;28;20061;-62
2020/12/13 04:25:47;;;;;;;3.83;2.28;;;;;;;3.85;93.18;96078.69;4981477;28;20042;-65
2020/12/13 04:28:13;;;;;;;1.95;1.63;;;;;;;3.79;92.52;96081.59;4975873;28;20046;-64
2020/12/13 04:30:38;;;;;;;3.58;1.83;;;;;;;3.76;92.40;96089.63;4983203;28;20562;-64
2020/12/13 04:33:06;;;;;;;2.35;1.75;;;;;;;3.87;92.23;96095.38;4977652;28;20443;-68
2020/12/13 04:35:31;;;;;;;2.75;1.95;;;;;;;3.79;92.49;96099.78;4981707;28;20455;-65
2020/12/13 04:37:57;;;;;;;2.10;1.50;;;;;;;3.77;92.18;96100.13;4982650;28;20130;-64
2020/12/13 04:40:22;;;;;;;2.05;1.60;;;;;;;3.73;92.86;96101.94;4982449;28;20636;-64
2020/12/13 04:42:49;;;;;;;2.30;1.52;;;;;;;3.77;92.85;96105.53;4987796;28;20048;-66
2020/12/13 04:45:15;;;;;;;1.90;1.55;;;;;;;3.87;91.48;96109.75;4976912;28;20447;-66
2020/12/13 04:47:53;;;;;;;2.38;1.77;;;;;;;3.77;91.89;96105.53;5000845;28;20081;-66
2020/12/13 04:50:19;;;;;;;2.28;1.70;;;;;;;3.79;91.93;96116.81;5002287;28;20038;-66
2020/12/13 04:52:45;;;;;;;4.65;1.55;;;;;;;3.66;92.68;96111.75;5008293;28;20041;-66
2020/12/13 04:55:11;;;;;;;2.15;1.60;;;;;;;3.60;93.14;96119.25;4997285;28;20525;-66
2020/12/13 04:57:37;;;;;;;2.92;1.85;;;;;;;3.60;93.42;96124.69;5000160;28;20141;-64
2020/12/13 05:00:03;;;;;;;2.60;1.52;;;;;;;3.62;93.38;96125.94;4978969;28;20133;-68
2020/12/13 05:02:28;;;;;;;2.38;1.80;;;;;;;3.64;93.55;96128.31;4979554;28;20046;-66
2020/12/13 05:04:54;;;;;;;2.28;1.50;;;;;;;3.59;93.16;96128.53;4999770;28;20042;-66
2020/12/13 05:07:21;;;;;;;2.10;1.63;;;;;;;3.59;93.26;96137.44;4995956;28;20042;-66
2020/12/13 05:09:50;;;;;;;2.05;1.70;;;;;;;3.62;93.11;96138.69;5000958;28;20490;-66
2020/12/13 05:12:16;;;;;;;2.20;1.37;;;;;;;3.72;93.12;96134.75;4999521;28;20050;-67
2020/12/13 05:14:46;;;;;;;2.10;1.50;;;;;;;3.69;92.84;96144.34;5006165;28;20295;-64
2020/12/13 05:17:13;;;;;;;2.65;1.73;;;;;;;3.72;92.97;96140.97;5000235;28;20038;-63
2020/12/13 05:19:41;;;;;;;2.00;1.42;;;;;;;3.66;92.62;96139.59;5003219;28;20046;-64
2020/12/13 05:22:07;;;;;;;2.30;1.60;;;;;;;3.62;93.55;96146.81;5001544;28;20048;-65
2020/12/13 05:24:34;;;;;;;1.98;1.65;;;;;;;3.58;93.50;96149.41;5005026;28;20042;-66
2020/12/13 05:27:06;;;;;;;2.03;1.52;;;;;;;3.58;93.66;96152.13;5005465;28;20042;-65
2020/12/13 05:29:35;;;;;;;2.03;1.50;;;;;;;3.61;93.87;96150.66;5005421;28;20844;-65
2020/12/13 05:32:15;;;;;;;2.53;1.88;;;;;;;3.71;93.67;96149.41;5009175;28;20038;-67
2020/12/13 05:34:43;;;;;;;1.70;1.33;;;;;;;3.86;93.15;96148.00;5006816;28;20041;-64
2020/12/13 05:37:14;;;;;;;1.80;1.35;;;;;;;3.95;92.93;96154.09;5003400;28;20104;-64
2020/12/13 05:39:42;;;;;;;1.65;1.48;;;;;;;3.89;92.71;96155.44;5009451;28;20037;-65
2020/12/13 05:42:08;;;;;;;2.25;1.60;;;;;;;3.91;92.83;96161.34;4999524;28;20065;-66
2020/12/13 05:45:04;;;;;;;2.60;1.88;;;;;;;3.88;92.99;96162.00;5004147;28;20050;-65
2020/12/13 05:53:15;;;;;;;1.60;1.35;;;;;;;4.00;91.59;96176.34;4998019;28;20045;-65
2020/12/13 05:55:41;;;;;;;1.77;1.42;;;;;;;3.97;92.43;96181.66;5005048;28;20445;-63
2020/12/13 05:58:07;;;;;;;1.95;1.58;;;;;;;3.87;93.21;96190.19;4999345;28;20084;-65
2020/12/13 06:00:34;;;;;;;2.78;1.80;;;;;;;3.82;92.46;96183.88;5002877;28;20434;-64
2020/12/13 06:03:03;;;;;;;1.90;1.70;;;;;;;3.84;93.13;96183.56;5001590;28;20132;-66
2020/12/13 06:05:33;;;;;;;2.25;2.00;;;;;;;3.91;92.53;96186.50;4982534;28;20141;-64
2020/12/13 06:08:02;;;;;;;2.40;1.90;;;;;;;3.86;92.80;96196.75;4984663;28;20053;-64
2020/12/13 06:10:33;;;;;;;2.10;1.75;;;;;;;3.87;93.00;96198.34;4980447;28;20136;-66
2020/12/13 06:13:00;;;;;;;1.75;1.50;;;;;;;3.98;92.18;96194.06;4984667;28;20049;-65
2020/12/13 06:15:30;;;;;;;2.60;1.80;;;;;;;3.97;92.27;96195.97;4979675;28;20078;-66
2020/12/13 06:17:57;;;;;;;1.80;1.35;;;;;;;4.12;90.92;96201.88;4984243;28;20046;-64
2020/12/13 06:20:22;;;;;;;3.33;1.50;;;;;;;4.09;90.98;96206.06;4980012;28;20054;-64
2020/12/13 06:22:50;;;;;;;1.52;1.30;;;;;;;3.97;91.65;96209.53;4983367;28;20130;-65
2020/12/13 06:25:17;;;;;;;2.58;1.52;;;;;;;4.16;91.18;96211.72;4977363;28;20053;-66
2020/12/13 06:27:42;;;;;;;1.77;1.40;;;;;;;4.20;90.35;96212.63;4985065;28;20487;-63
2020/12/13 06:30:09;;;;;;;6.28;2.65;;;;;;;4.10;91.11;96204.91;4980489;28;20043;-66
2020/12/13 06:32:39;;;;;;;3.75;1.90;;;;;;;3.99;92.03;96220.03;4984072;28;20511;-64
2020/12/13 06:35:04;;;;;;;2.47;2.05;;;;;;;3.90;93.13;96220.13;4980034;28;20042;-67
2020/12/13 06:37:30;;;;;;;2.88;2.03;;;;;;;3.89;93.08;96220.47;4984021;28;20042;-65
2020/12/13 06:39:55;;;;;;;2.58;2.08;;;;;;;3.95;93.10;96224.56;4984638;28;20150;-64
2020/12/13 06:42:30;;;;;;;3.00;2.25;;;;;;;3.94;93.13;96236.50;4991152;28;21062;-67
2020/12/13 06:45:10;;;;;;;2.72;1.80;;;;;;;3.89;93.07;96242.13;4983903;28;20042;-65
2020/12/13 06:47:40;;;;;;;1.60;1.50;;;;;;;3.93;93.16;96241.13;4983477;28;20137;-65
2020/12/13 06:50:25;;;;;;;3.42;2.33;;;;;;;4.15;91.80;96250.00;4979394;28;20566;-64
2020/12/13 06:52:52;;;;;;;2.67;2.10;;;;;;;4.17;91.56;96245.03;4984483;28;20045;-66
2020/12/13 06:55:29;;;;;;;2.10;1.90;;;;;;;4.16;91.70;96246.16;4979144;28;20100;-65
2020/12/13 06:57:55;;;;;;;2.17;1.92;;;;;;;4.19;92.10;96246.28;4993917;28;20037;-64
2020/12/13 07:00:20;;;;;;;2.33;2.03;;;;;;;4.23;91.50;96238.25;4998451;28;20042;-66
2020/12/13 07:02:59;;;;;;;1.90;1.45;;;;;;;4.32;90.47;96243.59;4985930;28;20391;-65
2020/12/13 07:05:45;;;;;;;1.48;1.38;;;;;;;4.15;90.50;96244.59;4998490;28;20719;-65
2020/12/13 07:08:14;;;;;;;1.58;1.17;;;;;;;4.15;91.61;96248.06;4997901;28;20491;-65
2020/12/13 07:10:44;;;;;;;2.00;1.60;;;;;;;4.08;92.18;96260.59;5006516;28;20045;-67
2020/12/13 07:13:11;;;;;;;1.60;1.42;;;;;;;4.05;92.45;96261.25;5005219;28;20080;-66
2020/12/13 07:15:46;;;;;;;1.60;1.50;;;;;;;3.97;92.53;96269.16;5012178;28;20046;-67
2020/12/13 07:18:16;;;;;;;2.50;1.92;;;;;;;3.96;92.47;96273.00;5005227;28;20092;-67
2020/12/13 07:20:45;;;;;;;2.03;1.50;;;;;;;4.02;92.56;96268.16;5005712;28;20034;-64
2020/12/13 07:23:11;;;;;;;2.15;1.67;;;;;;;4.09;91.97;96276.53;4998533;28;20033;-65
2020/12/13 07:25:36;;;;;;;1.42;1.20;;;;;;;4.08;91.67;96285.00;5002507;28;20544;-66
2020/12/13 07:28:02;;;;;;;1.75;1.50;;;;;;;4.20;91.03;96293.16;5002298;28;20038;-66
2020/12/13 07:30:29;;;;;;;1.73;1.33;;;;;;;4.16;91.39;96287.63;4999225;28;20065;-66
2020/12/13 07:32:56;;;;;;;2.42;1.65;;;;;;;4.13;92.00;96301.84;5002323;28;20071;-65
2020/12/13 07:35:23;;;;;;;1.83;1.42;;;;;;;4.06;92.20;96296.16;5009477;28;20424;-65
2020/12/13 07:37:50;;;;;;;1.77;1.40;;;;;;;3.95;92.85;96297.72;5001600;28;20041;-65
2020/12/13 07:40:15;;;;;;;1.45;1.23;;;;;;;3.98;92.56;96297.84;4998389;28;20127;-64
2020/12/13 07:43:01;;;;;;;1.65;1.20;;;;;;;3.92;92.89;96296.44;5001561;28;20085;-66
2020/12/13 07:45:27;;;;;;;3.75;1.52;;;;;;;3.99;92.57;96301.34;4997113;28;20038;-66
2020/12/13 07:48:03;;;;;;;1.80;1.23;;;;;;;4.15;91.40;96306.91;5002133;28;20393;-66
2020/12/13 07:50:34;;;;;;;1.58;1.48;;;;;;;4.05;91.38;96307.34;4998894;28;20033;-64
2020/12/13 07:53:01;;;;;;;1.90;1.40;;;;;;;3.88;92.23;96311.00;5001342;28;20046;-66
2020/12/13 07:55:26;;;;;;;2.08;1.48;;;;;;;4.04;92.19;96309.25;4984617;28;20061;-65
2020/12/13 07:57:52;;;;;;;3.17;1.63;;;;;;;4.16;91.79;96320.16;4981828;28;20035;-65
2020/12/13 08:00:17;;;;;;;2.60;1.58;;;;;;;4.26;90.82;96315.44;4976564;28;20513;-64
2020/12/13 08:02:42;;;;;;;1.30;1.08;;;;;;;4.30;90.20;96319.81;4982065;28;20050;-65
2020/12/13 08:05:10;;;;;;;1.38;1.20;;;;;;;4.39;89.93;96323.25;4976375;28;20392;-65
2020/12/13 08:07:35;;;;;;;1.35;1.23;;;;;;;4.25;90.86;96328.19;4981251;28;20061;-65
2020/12/13 08:10:01;;;;;;;1.80;1.15;;;;;;;4.21;90.66;96330.78;4981442;28;20039;-65
2020/12/13 08:12:33;;;;;;;2.03;1.40;;;;;;;4.21;91.09;96336.19;4975457;28;20498;-65
2020/12/13 08:14:58;;;;;;;1.60;1.10;;;;;;;4.25;90.80;96330.09;4981871;28;20545;-66
2020/12/13 08:17:24;;;;;;;2.78;1.10;;;;;;;4.02;91.61;96341.31;4975452;28;20054;-64
2020/12/13 08:19:53;;;;;;;1.20;1.08;;;;;;;4.01;90.86;96340.50;4982153;28;20085;-64
2020/12/13 08:22:24;;;;;;;1.33;1.20;;;;;;;4.09;90.93;96343.47;4976214;28;20042;-66
2020/12/13 08:24:54;;;;;;;1.40;0.98;;;;;;;4.20;90.09;96350.88;4980430;28;20038;-64
2020/12/13 08:27:21;;;;;;;1.20;1.10;;;;;;;4.15;90.54;96350.28;4975025;28;20050;-64
2020/12/13 08:29:46;;;;;;;1.25;1.00;;;;;;;4.03;91.09;96345.59;4979046;28;20046;-66
2020/12/13 08:32:13;;;;;;;2.25;1.00;;;;;;;4.15;90.47;96353.00;4971438;28;20070;-65
2020/12/13 08:34:39;;;;;;;1.42;1.10;;;;;;;4.10;90.37;96347.78;4980873;28;20040;-66
2020/12/13 08:37:05;;;;;;;1.20;1.10;;;;;;;4.08;90.53;96353.53;4968168;28;20432;-63
2020/12/13 08:39:33;;;;;;;1.77;1.55;;;;;;;4.17;90.85;96350.75;4981913;28;20042;-66
2020/12/13 08:42:00;;;;;;;1.23;1.00;;;;;;;4.35;89.75;96356.78;4981204;28;20385;-65
2020/12/13 08:44:29;;;;;;;3.17;1.00;;;;;;;4.40;89.12;96364.72;4976225;28;20105;-65
2020/12/13 08:46:56;;;;;;;1.52;1.33;;;;;;;4.31;89.77;96366.72;4982052;28;20096;-66
2020/12/13 08:49:34;;;;;;;1.20;1.10;;;;;;;4.30;89.84;96370.56;4976302;28;20704;-65
2020/12/13 08:52:19;;;;;;;1.63;1.23;;;;;;;4.30;90.23;96371.34;4984898;28;20169;-66
2020/12/13 08:54:48;;;;;;;1.20;1.10;;;;;;;4.13;91.21;96385.06;4990367;28;20149;-65
2020/12/13 08:57:25;;;;;;;1.47;1.23;;;;;;;4.12;91.48;96389.69;4982337;28;20149;-66
2020/12/13 09:00:17;;;;;;;1.00;0.90;;;;;;;4.29;91.08;96383.31;4985399;28;20293;-66
2020/12/13 09:03:00;;;;;;;20.98;7.85;;;;;;;4.27;90.58;96382.88;4981808;28;20042;-65
2020/12/13 09:05:33;;;;;;;1.75;1.30;;;;;;;4.30;90.95;96389.53;4980813;28;20065;-65
2020/12/13 09:07:59;;;;;;;1.55;1.08;;;;;;;4.43;89.73;96395.78;4980592;28;20169;-65
2020/12/13 09:10:27;;;;;;;1.17;1.00;;;;;;;4.58;88.69;96397.88;4980386;28;20078;-64
2020/12/13 09:12:53;;;;;;;2.47;1.40;;;;;;;4.43;89.38;96401.22;4994362;28;20034;-64
2020/12/13 09:15:22;;;;;;;8.35;4.55;;;;;;;4.49;89.59;96413.44;4996136;28;20116;-66
2020/12/13 09:17:56;;;;;;;2.10;1.63;;;;;;;4.33;90.05;96413.28;4981582;28;20042;-66
2020/12/13 09:20:24;;;;;;;2.58;1.65;;;;;;;4.42;89.48;96413.19;4976841;28;20065;-65
2020/12/13 09:22:59;;;;;;;2.55;1.85;;;;;;;4.28;90.44;96419.69;4980595;28;20046;-63
2020/12/13 09:25:25;;;;;;;2.53;1.60;;;;;;;4.21;90.81;96422.13;4975998;28;20050;-66
2020/12/13 09:27:50;;;;;;;2.30;1.50;;;;;;;4.23;91.53;96417.16;4981527;28;20053;-66
2020/12/13 09:30:16;;;;;;;2.20;1.88;;;;;;;4.46;90.33;96408.69;4975565;28;20074;-65
2020/12/13 09:32:41;;;;;;;2.50;1.63;;;;;;;4.47;90.48;96423.84;4981002;28;20050;-66
2020/12/13 09:35:07;;;;;;;1.88;1.48;;;;;;;4.61;88.79;96424.34;4978640;28;20042;-63
2020/12/13 09:37:32;;;;;;;3.00;1.67;;;;;;;4.49;89.62;96435.16;4981221;28;20081;-68
2020/12/13 09:39:58;;;;;;;4.47;2.00;;;;;;;4.52;89.46;96432.56;4988146;28;20039;-65
2020/12/13 09:42:23;;;;;;;4.03;2.17;;;;;;;4.64;89.38;96426.38;4983635;28;20046;-65
2020/12/13 09:44:49;;;;;;;2.70;1.75;;;;;;;4.60;88.97;96425.47;4986531;28;20065;-65
2020/12/13 09:47:15;;;;;;;2.90;1.70;;;;;;;4.69;89.24;96433.53;4974405;28;20042;-65
2020/12/13 09:49:40;;;;;;;3.75;2.08;;;;;;;4.68;89.20;96426.50;4979839;28;20100;-65
2020/12/13 09:52:06;;;;;;;3.95;2.22;;;;;;;4.50;90.00;96434.81;4966730;28;20073;-67
2020/12/13 09:54:31;;;;;;;3.03;1.80;;;;;;;4.70;89.51;96429.66;4982075;28;20057;-64
2020/12/13 09:56:57;;;;;;;3.30;2.22;;;;;;;4.64;90.00;96429.09;5004035;28;20042;-64
2020/12/13 09:59:23;;;;;;;18.58;11.05;;;;;;;4.66;90.05;96426.81;4999017;28;20651;-63
2020/12/13 10:01:49;;;;;;;21.25;12.00;;;;;;;4.65;90.54;96430.69;4989228;28;20081;-63
2020/12/13 10:04:16;;;;;;;19.48;10.73;;;;;;;4.53;90.32;96436.84;4971163;28;20035;-65
2020/12/13 10:06:55;;;;;;;12.88;7.25;;;;;;;4.65;90.37;96427.19;4997809;28;20190;-65
2020/12/13 10:09:20;;;;;;;9.52;4.35;;;;;;;4.66;90.36;96429.53;4982886;28;20168;-65
2020/12/13 10:11:46;;;;;;;6.55;3.50;;;;;;;4.64;90.22;96428.31;4983273;28;20081;-66
2020/12/13 10:14:13;;;;;;;3.85;2.40;;;;;;;4.43;90.78;96437.28;4979052;28;20046;-66
2020/12/13 10:16:44;;;;;;;2.95;1.98;;;;;;;4.25;92.42;96435.81;4982747;28;20048;-66
2020/12/13 10:19:10;;;;;;;4.88;3.08;;;;;;;4.55;92.04;96436.50;4978800;28;20101;-66
2020/12/13 10:21:36;;;;;;;5.30;2.42;;;;;;;4.39;91.87;96431.72;4984160;28;20054;-66
2020/12/13 10:24:03;;;;;;;4.03;2.30;;;;;;;4.29;92.75;96436.75;4982178;28;20042;-66
2020/12/13 10:26:32;;;;;;;3.30;1.90;;;;;;;4.18;93.42;96431.75;4972572;28;20496;-65
2020/12/13 10:28:58;;;;;;;2.47;2.03;;;;;;;4.12;93.95;96432.25;4979414;28;20185;-66
2020/12/13 10:31:35;;;;;;;4.97;3.10;;;;;;;4.11;94.54;96426.06;4978018;28;20690;-65
2020/12/13 10:34:02;;;;;;;3.67;2.95;;;;;;;4.16;94.79;96436.69;4983210;28;20206;-66
2020/12/13 10:36:30;;;;;;;3.75;2.80;;;;;;;4.32;94.54;96431.47;4979712;28;20046;-66
2020/12/13 10:38:56;;;;;;;2.33;2.05;;;;;;;4.36;94.46;96429.69;4983656;28;20499;-66
2020/12/13 10:41:22;;;;;;;3.55;2.40;;;;;;;4.35;93.97;96432.72;4983148;28;20055;-67
2020/12/13 10:43:49;;;;;;;6.97;3.60;;;;;;;4.11;94.82;96430.69;4985332;28;20049;-66
2020/12/13 10:46:15;;;;;;;6.03;2.90;;;;;;;4.39;94.18;96425.50;4977420;28;20046;-66
2020/12/13 10:48:41;;;;;;;4.13;2.78;;;;;;;4.52;93.68;96424.44;4981927;28;20129;-66
2020/12/13 10:51:06;;;;;;;4.40;3.10;;;;;;;4.59;93.17;96423.88;4978791;28;20137;-67
2020/12/13 10:53:32;;;;;;;6.88;3.97;;;;;;;4.64;92.80;96417.44;4983642;28;20043;-66
2020/12/13 10:55:57;;;;;;;12.27;6.30;;;;;;;4.68;92.87;96423.78;4983040;28;20054;-67
2020/12/13 10:58:23;;;;;;;10.02;5.20;;;;;;;4.70;92.71;96418.81;4976482;28;20125;-66
2020/12/13 11:00:49;;;;;;;8.50;5.25;;;;;;;4.84;92.61;96422.00;4977998;28;20113;-66
2020/12/13 11:03:15;;;;;;;6.30;3.70;;;;;;;4.87;92.02;96420.56;4975740;28;20061;-67
2020/12/13 11:05:42;;;;;;;9.82;5.07;;;;;;;5.07;92.17;96421.63;4982705;28;20046;-66
2020/12/13 11:08:08;;;;;;;7.97;4.07;;;;;;;5.19;90.97;96423.56;4976426;28;20042;-65
2020/12/13 11:10:34;;;;;;;7.03;4.15;;;;;;;5.32;90.48;96428.63;4982566;28;20066;-68
2020/12/13 11:12:59;;;;;;;4.82;2.95;;;;;;;5.35;89.74;96411.69;4976745;28;20129;-65
2020/12/13 11:15:25;;;;;;;5.13;3.58;;;;;;;5.38;89.97;96415.63;4971486;28;20120;-65
2020/12/13 11:17:50;;;;;;;7.18;3.97;;;;;;;5.35;89.56;96424.47;4982953;28;20046;-66
2020/12/13 11:20:15;;;;;;;4.72;2.75;;;;;;;5.28;89.47;96426.97;4978307;28;20503;-65
2020/12/13 11:22:41;;;;;;;3.95;2.55;;;;;;;5.30;89.48;96421.97;4980614;28;20050;-66
2020/12/13 11:25:06;;;;;;;3.83;3.03;;;;;;;5.31;89.90;96420.81;4976930;28;20041;-65
2020/12/13 11:27:32;;;;;;;3.38;2.53;;;;;;;5.21;89.90;96415.88;4980894;28;20158;-66
2020/12/13 11:29:57;;;;;;;3.85;2.72;;;;;;;5.00;90.35;96419.44;4980230;28;20141;-66
2020/12/13 11:32:29;;;;;;;3.95;2.65;;;;;;;4.93;90.41;96416.50;4975972;28;20046;-66
2020/12/13 11:34:54;;;;;;;4.75;2.28;;;;;;;4.78;90.64;96416.00;4979362;28;20105;-66
2020/12/13 11:37:19;;;;;;;4.13;3.05;;;;;;;4.73;91.79;96413.50;4973167;28;20042;-67
2020/12/13 11:39:45;;;;;;;7.65;4.53;;;;;;;4.86;90.93;96411.63;4976490;28;20058;-65
2020/12/13 11:42:11;;;;;;;6.43;2.92;;;;;;;5.00;90.57;96416.72;4970061;28;20045;-66
2020/12/13 11:44:36;;;;;;;6.07;3.47;;;;;;;4.94;90.43;96418.09;4981630;28;20088;-66
2020/12/13 11:47:01;;;;;;;7.05;2.88;;;;;;;4.87;90.62;96421.34;4979264;28;20054;-65
2020/12/13 11:49:27;;;;;;;3.20;2.50;;;;;;;4.87;90.73;96417.84;4978507;28;20487;-65